Time;durP1;ratioP1;P1;durP2;ratioP2;P2;SDS_P1;SDS_P2;PMS_P1;PMS_P2;Temp;Humidity;BMP_temperature;BMP_pressure;BME280_temperature;BME280_humidity;BME280_pressure;Samples;Min_cycle;Max_cycle;Signal;HPM_P1;HPM_P2
2021/05/26 00:01:53;;;;;;;7.00;2.05;;;;;;;10.89;63.31;101251.81;5092759;28;20437;-53
2021/05/26 00:04:20;;;;;;;2.88;1.63;;;;;;;10.91;63.75;101246.94;5092450;28;20499;-54
2021/05/26 00:06:48;;;;;;;3.88;1.77;;;;;;;10.94;62.77;101240.97;5092582;28;20040;-51
2021/05/26 00:09:15;;;;;;;4.70;1.90;;;;;;;10.99;63.54;101238.31;5091757;28;20452;-52
2021/05/26 00:11:43;;;;;;;3.58;1.73;;;;;;;11.04;63.21;101232.88;5092755;28;20044;-52
2021/05/26 00:14:11;;;;;;;4.60;2.00;;;;;;;11.09;64.00;101227.47;5092431;28;20048;-54
2021/05/26 00:16:50;;;;;;;2.25;1.42;;;;;;;11.17;63.30;101220.69;5092315;28;20048;-52
2021/05/26 00:19:18;;;;;;;4.28;2.03;;;;;;;11.22;63.93;101223.47;5092159;28;20047;-52
2021/05/26 00:21:45;;;;;;;3.22;1.42;;;;;;;11.27;64.13;101219.94;5092047;28;20563;-53
2021/05/26 00:24:13;;;;;;;3.10;1.40;;;;;;;11.29;63.26;101220.50;5091704;28;20060;-55
2021/05/26 00:26:40;;;;;;;4.05;1.70;;;;;;;11.29;63.33;101224.06;5092280;28;20056;-53
2021/05/26 00:29:08;;;;;;;2.95;1.50;;;;;;;11.29;62.79;101221.31;5092258;28;20069;-52
2021/05/26 00:31:36;;;;;;;3.58;1.80;;;;;;;11.27;63.32;101219.94;5092430;28;20076;-56
2021/05/26 00:34:04;;;;;;;3.85;1.77;;;;;;;11.25;63.40;101216.66;5091918;28;20044;-55
2021/05/26 00:36:31;;;;;;;2.97;1.58;;;;;;;11.21;63.65;101207.38;5091777;28;20113;-52
2021/05/26 00:38:59;;;;;;;2.22;1.40;;;;;;;11.17;63.29;101215.25;5091293;28;20033;-55
2021/05/26 00:41:28;;;;;;;2.60;1.30;;;;;;;11.15;63.40;101211.13;5091734;28;20440;-47
2021/05/26 00:43:56;;;;;;;4.40;1.65;;;;;;;11.13;63.89;101202.38;5091811;28;20063;-50
2021/05/26 00:46:24;;;;;;;4.40;1.58;;;;;;;11.14;64.82;101199.41;5092012;28;20051;-55
2021/05/26 00:48:52;;;;;;;2.45;1.63;;;;;;;11.12;64.68;101200.75;5091556;28;20156;-53
2021/05/26 00:51:20;;;;;;;3.80;2.20;;;;;;;11.12;64.82;101195.31;5092098;28;20052;-49
2021/05/26 00:53:48;;;;;;;6.18;1.90;;;;;;;11.12;65.07;101189.84;5091301;28;20433;-51
2021/05/26 00:56:15;;;;;;;3.85;1.40;;;;;;;11.14;65.15;101184.97;5090818;28;20040;-54
2021/05/26 00:58:43;;;;;;;3.78;1.60;;;;;;;11.12;65.05;101181.66;5090666;28;20547;-54
2021/05/26 01:01:12;;;;;;;3.47;1.70;;;;;;;11.06;65.33;101178.06;5074115;28;20443;-53
2021/05/26 01:03:40;;;;;;;4.43;2.03;;;;;;;11.04;66.53;101178.34;5090444;28;20113;-54
2021/05/26 01:06:08;;;;;;;4.45;1.98;;;;;;;11.09;66.30;101174.84;5090082;28;20066;-54
2021/05/26 01:08:36;;;;;;;5.30;2.38;;;;;;;11.11;66.58;101171.81;5090837;28;20055;-52
2021/05/26 01:11:06;;;;;;;6.45;2.78;;;;;;;11.14;66.89;101161.22;5095768;28;20402;-49
2021/05/26 01:13:37;;;;;;;9.40;2.83;;;;;;;11.18;67.04;101156.88;5096600;28;20051;-54
2021/05/26 01:16:06;;;;;;;8.82;3.10;;;;;;;11.21;66.83;101161.81;5096445;28;20078;-51
2021/05/26 01:18:35;;;;;;;6.70;2.72;;;;;;;11.24;67.39;101160.47;5096504;28;20048;-50
2021/05/26 01:21:10;;;;;;;10.13;3.13;;;;;;;11.26;67.63;101159.13;5094738;28;20043;-51
2021/05/26 01:23:48;;;;;;;7.32;3.10;;;;;;;11.29;67.16;101147.66;5096107;28;20048;-52
2021/05/26 01:26:21;;;;;;;11.35;3.50;;;;;;;11.29;67.71;101146.84;5094857;28;20051;-52
2021/05/26 01:28:48;;;;;;;10.65;3.80;;;;;;;11.27;67.99;101149.03;5094777;28;20036;-50
2021/05/26 01:31:19;;;;;;;10.13;3.63;;;;;;;11.33;68.82;101136.22;5094928;28;20612;-51
2021/05/26 01:34:01;;;;;;;9.45;3.13;;;;;;;11.35;68.44;101129.41;5094944;28;20397;-49
2021/05/26 01:36:42;;;;;;;12.13;3.38;;;;;;;11.38;68.65;101139.81;5079244;28;20097;-54
2021/05/26 01:39:11;;;;;;;15.25;3.83;;;;;;;11.41;69.12;101138.47;5094606;28;20139;-50
2021/05/26 01:41:38;;;;;;;12.35;4.10;;;;;;;11.43;69.18;101126.19;5095645;28;20059;-54
2021/05/26 01:44:07;;;;;;;10.82;3.65;;;;;;;11.48;69.04;101131.66;5095536;28;20503;-53
2021/05/26 01:46:36;;;;;;;11.20;3.42;;;;;;;11.51;68.57;101131.13;5094918;28;20055;-51
2021/05/26 01:49:07;;;;;;;10.88;3.45;;;;;;;11.55;68.75;101128.69;5094352;28;20044;-55
2021/05/26 01:51:36;;;;;;;13.43;3.95;;;;;;;11.57;68.57;101125.69;5095164;28;20452;-53
2021/05/26 01:54:04;;;;;;;9.43;3.45;;;;;;;11.57;68.96;101131.97;5095487;28;20040;-51
2021/05/26 01:56:34;;;;;;;13.27;3.80;;;;;;;11.56;69.30;101126.78;5094614;28;20093;-54
2021/05/26 01:59:09;;;;;;;11.48;4.13;;;;;;;11.56;68.72;101121.31;5095294;28;20109;-49
2021/05/26 02:01:39;;;;;;;12.40;3.72;;;;;;;11.55;68.64;101122.44;5094516;28;20048;-51
2021/05/26 02:04:08;;;;;;;11.00;3.85;;;;;;;11.51;69.22;101122.13;5094097;28;20049;-50
2021/05/26 02:06:39;;;;;;;14.80;4.32;;;;;;;11.51;69.06;101120.22;5095024;28;20051;-51
2021/05/26 02:09:07;;;;;;;14.63;4.63;;;;;;;11.48;69.50;101126.22;5093899;28;20097;-52
2021/05/26 02:14:22;;;;;;;14.50;4.10;;;;;;;11.41;69.57;101113.91;5094940;28;20051;-50
2021/05/26 02:16:55;;;;;;;14.27;4.70;;;;;;;11.37;69.85;101110.06;5089114;28;20445;-53
2021/05/26 02:19:23;;;;;;;14.13;4.53;;;;;;;11.29;69.73;101112.22;5090294;28;20094;-53
2021/05/26 02:21:52;;;;;;;12.68;4.18;;;;;;;11.29;70.35;101098.56;5092878;28;20486;-54
2021/05/26 02:24:20;;;;;;;15.90;4.78;;;;;;;11.29;70.23;101105.94;5094966;28;20044;-52
2021/05/26 02:26:48;;;;;;;13.93;4.53;;;;;;;11.25;70.08;101105.63;5093769;28;20048;-52
2021/05/26 02:29:16;;;;;;;15.48;4.65;;;;;;;11.23;69.84;101102.38;5093466;28;20048;-52
2021/05/26 02:31:44;;;;;;;14.32;4.18;;;;;;;11.23;69.85;101104.25;5095016;28;20490;-53
2021/05/26 02:34:14;;;;;;;10.45;3.78;;;;;;;11.27;69.55;101094.47;5092910;28;20052;-51
2021/05/26 02:36:43;;;;;;;13.25;4.32;;;;;;;11.26;69.29;101101.84;5093500;28;20047;-53
2021/05/26 02:39:11;;;;;;;9.82;3.72;;;;;;;11.24;70.06;101084.91;5094609;28;20048;-51
2021/05/26 02:41:40;;;;;;;15.95;4.30;;;;;;;11.24;69.66;101092.28;5066370;28;20055;-51
2021/05/26 02:44:12;;;;;;;16.70;4.63;;;;;;;11.22;69.68;101092.53;5093143;28;20055;-50
2021/05/26 02:46:40;;;;;;;12.48;3.95;;;;;;;11.21;69.11;101098.28;5094296;28;20498;-50
2021/05/26 02:49:08;;;;;;;12.02;3.88;;;;;;;11.19;69.32;101095.81;5094281;28;20048;-52
2021/05/26 02:51:37;;;;;;;12.73;4.13;;;;;;;11.17;69.11;101092.50;5094454;28;20077;-51
2021/05/26 02:54:06;;;;;;;17.17;4.55;;;;;;;11.16;69.17;101093.63;5093099;28;20082;-52
2021/05/26 02:56:35;;;;;;;12.82;3.67;;;;;;;11.16;68.76;101093.63;5093430;28;20379;-55
2021/05/26 02:59:25;;;;;;;11.80;4.22;;;;;;;11.15;68.87;101089.22;5094693;28;20861;-56
2021/05/26 03:02:12;;;;;;;12.48;3.53;;;;;;;11.14;68.88;101092.25;5094754;28;20051;-55
2021/05/26 03:04:45;;;;;;;9.07;3.67;;;;;;;11.12;68.70;101092.50;5093089;28;20051;-55
2021/05/26 03:07:16;;;;;;;13.73;4.20;;;;;;;11.10;68.56;101089.19;5093041;28;20403;-53
2021/05/26 03:09:46;;;;;;;11.98;3.42;;;;;;;11.09;68.73;101093.84;5093727;28;20072;-53
2021/05/26 03:12:15;;;;;;;9.95;3.38;;;;;;;11.13;69.12;101098.75;5093138;28;20079;-51
2021/05/26 03:14:55;;;;;;;11.65;3.58;;;;;;;11.14;69.20;101087.59;5093067;28;20055;-52
2021/05/26 03:17:27;;;;;;;10.32;3.03;;;;;;;11.17;68.41;101091.69;5093936;28;20036;-56
2021/05/26 03:19:58;;;;;;;11.10;3.13;;;;;;;11.14;68.68;101089.50;5094035;28;20498;-52
2021/05/26 03:22:35;;;;;;;11.30;3.42;;;;;;;11.09;68.95;101084.84;5067431;28;20072;-50
2021/05/26 03:25:24;;;;;;;10.25;3.30;;;;;;;11.05;68.63;101089.19;5093402;28;20097;-51
2021/05/26 03:28:02;;;;;;;7.55;2.92;;;;;;;11.05;68.75;101095.44;5092754;28;20067;-52
2021/05/26 03:30:30;;;;;;;11.52;3.28;;;;;;;11.06;68.91;101090.81;5093537;28;20051;-55
2021/05/26 03:32:58;;;;;;;10.90;3.65;;;;;;;11.05;68.88;101091.91;5092878;28;20048;-55
2021/05/26 03:35:26;;;;;;;10.35;3.65;;;;;;;11.02;68.97;101092.44;5093746;28;20047;-50
2021/05/26 03:37:55;;;;;;;13.60;3.72;;;;;;;11.01;68.70;101086.16;5092489;28;20112;-53
2021/05/26 03:40:25;;;;;;;11.52;3.22;;;;;;;11.03;68.65;101088.63;5092318;28;20044;-51
2021/05/26 03:42:58;;;;;;;13.50;3.45;;;;;;;11.00;68.43;101080.97;5093339;28;20583;-55
2021/05/26 03:45:44;;;;;;;10.55;3.42;;;;;;;11.00;68.51;101079.06;5077622;28;20048;-51
2021/05/26 03:48:13;;;;;;;9.88;3.33;;;;;;;11.01;68.35;101083.41;5072906;28;20086;-54
2021/05/26 03:50:44;;;;;;;9.23;2.90;;;;;;;10.96;68.27;101075.22;5073262;28;20506;-52
2021/05/26 03:53:14;;;;;;;13.25;3.35;;;;;;;10.97;68.80;101076.88;5064135;28;20032;-54
2021/05/26 03:55:44;;;;;;;12.95;3.58;;;;;;;11.01;68.37;101075.25;5091974;28;20052;-50
2021/05/26 03:58:30;;;;;;;10.45;3.05;;;;;;;10.99;68.32;101071.97;5068125;28;20077;-55
2021/05/26 04:01:03;;;;;;;11.50;3.20;;;;;;;11.00;68.11;101073.63;5092682;28;20036;-55
2021/05/26 04:03:32;;;;;;;8.30;2.80;;;;;;;10.99;68.70;101071.13;5091975;28;20044;-51
2021/05/26 04:06:04;;;;;;;8.20;3.00;;;;;;;10.95;68.36;101073.59;5091869;28;20048;-52
2021/05/26 04:08:32;;;;;;;10.35;2.95;;;;;;;10.92;68.22;101068.69;5064591;28;20445;-52
2021/05/26 04:11:00;;;;;;;8.50;3.10;;;;;;;10.94;68.14;101073.84;5092718;28;20482;-53
2021/05/26 04:13:56;;;;;;;16.00;3.80;;;;;;;10.92;68.69;101071.41;5091731;28;20047;-54
2021/05/26 04:16:56;;;;;;;8.45;2.55;;;;;;;10.90;68.57;101072.75;5049993;28;20044;-52
2021/05/26 04:19:50;;;;;;;10.18;3.35;;;;;;;10.95;69.08;101070.06;5025470;28;20503;-55
2021/05/26 04:22:18;;;;;;;6.65;3.08;;;;;;;10.96;68.75;101072.50;5034050;28;20045;-54
2021/05/26 04:24:54;;;;;;;11.38;3.15;;;;;;;10.97;68.56;101062.44;5034262;28;20051;-52
2021/05/26 04:27:22;;;;;;;10.18;3.08;;;;;;;11.00;68.73;101064.63;5052162;28;20092;-55
2021/05/26 04:29:52;;;;;;;9.13;2.95;;;;;;;11.04;68.92;101066.56;5034223;28;20103;-54
2021/05/26 04:32:20;;;;;;;10.82;3.10;;;;;;;11.04;68.63;101068.44;5051318;28;20175;-53
2021/05/26 04:34:48;;;;;;;9.90;3.20;;;;;;;11.05;68.91;101070.91;5051036;28;20045;-56
2021/05/26 04:37:17;;;;;;;9.05;3.00;;;;;;;11.02;68.71;101060.53;5050802;28;20071;-53
2021/05/26 04:39:45;;;;;;;10.80;3.58;;;;;;;11.01;68.83;101056.16;5049979;28;20056;-54
2021/05/26 04:42:12;;;;;;;11.00;3.30;;;;;;;11.00;68.87;101062.72;5049905;28;20507;-56
2021/05/26 04:44:40;;;;;;;13.07;3.45;;;;;;;11.03;69.04;101053.19;5048664;28;20057;-54
2021/05/26 04:47:08;;;;;;;10.23;3.15;;;;;;;11.04;68.30;101057.53;5049890;28;20041;-54
2021/05/26 04:49:36;;;;;;;13.48;3.42;;;;;;;11.01;68.33;101053.44;5049758;28;20041;-52
2021/05/26 04:52:03;;;;;;;14.63;3.83;;;;;;;10.99;68.39;101052.91;5061689;28;20532;-53
2021/05/26 04:54:31;;;;;;;9.38;2.88;;;;;;;10.99;68.29;101049.31;5091775;28;20371;-54
2021/05/26 04:56:59;;;;;;;10.07;3.55;;;;;;;11.15;68.92;101050.22;5092228;28;20040;-52
2021/05/26 04:59:26;;;;;;;12.30;3.78;;;;;;;11.12;68.23;101048.03;5070947;28;20450;-55
2021/05/26 05:01:54;;;;;;;9.75;3.30;;;;;;;11.02;67.95;101040.63;5072168;28;20045;-51
2021/05/26 05:04:22;;;;;;;10.00;3.17;;;;;;;11.03;68.00;101040.34;5072007;28;20055;-53
2021/05/26 05:06:50;;;;;;;10.75;3.35;;;;;;;11.00;68.07;101042.81;5059189;28;20052;-53
2021/05/26 05:09:17;;;;;;;9.07;3.22;;;;;;;11.04;68.83;101035.72;5071652;28;20036;-52
2021/05/26 05:11:45;;;;;;;11.77;3.15;;;;;;;11.03;68.49;101039.53;5071569;28;20064;-53
2021/05/26 05:14:13;;;;;;;8.23;3.60;;;;;;;11.01;67.87;101036.25;5071309;28;20128;-54
2021/05/26 05:16:41;;;;;;;9.63;3.20;;;;;;;10.99;68.45;101032.97;5071509;28;20109;-53
2021/05/26 05:19:08;;;;;;;10.50;3.38;;;;;;;10.93;68.02;101037.59;5071784;28;20075;-55
2021/05/26 05:21:36;;;;;;;9.10;2.72;;;;;;;10.93;68.40;101031.31;5071496;28;20064;-53
2021/05/26 05:24:04;;;;;;;8.02;3.33;;;;;;;10.91;68.42;101031.56;5071472;28;20438;-52
2021/05/26 05:26:33;;;;;;;11.05;3.50;;;;;;;10.93;68.26;101029.41;5082186;28;20078;-53
2021/05/26 05:29:01;;;;;;;9.63;3.22;;;;;;;10.91;68.19;101031.56;5091321;28;20044;-54
2021/05/26 05:31:31;;;;;;;7.47;2.75;;;;;;;10.92;68.35;101035.97;5091962;28;20048;-51
2021/05/26 05:33:59;;;;;;;11.93;4.13;;;;;;;10.95;68.00;101040.06;5090301;28;20044;-53
2021/05/26 05:36:26;;;;;;;5.82;2.63;;;;;;;10.95;68.49;101037.34;5091699;28;20074;-54
2021/05/26 05:38:54;;;;;;;6.35;2.58;;;;;;;11.02;69.24;101035.19;5091377;28;20077;-53
2021/05/26 05:41:22;;;;;;;7.35;3.13;;;;;;;11.14;69.19;101034.97;5091996;28;20044;-52
2021/05/26 05:43:50;;;;;;;5.32;2.55;;;;;;;11.07;68.63;101036.03;5091358;28;20503;-53
2021/05/26 05:46:17;;;;;;;9.90;3.45;;;;;;;11.10;68.50;101034.66;5091598;28;20049;-53
2021/05/26 05:48:45;;;;;;;8.85;3.63;;;;;;;11.05;68.17;101034.66;5091910;28;20048;-52
2021/05/26 05:51:12;;;;;;;5.95;2.60;;;;;;;11.08;68.34;101032.19;5091453;28;20054;-52
2021/05/26 05:53:40;;;;;;;7.97;3.25;;;;;;;11.07;67.93;101036.03;5091414;28;20043;-51
2021/05/26 05:56:08;;;;;;;8.52;3.05;;;;;;;11.15;67.86;101028.41;5093065;28;20448;-52
2021/05/26 05:58:35;;;;;;;8.65;3.40;;;;;;;11.14;67.65;101029.50;5095162;28;20040;-53
2021/05/26 06:01:03;;;;;;;8.45;3.20;;;;;;;11.19;67.71;101032.25;5095578;28;20055;-52
2021/05/26 06:03:31;;;;;;;11.57;4.32;;;;;;;11.15;67.85;101033.88;5095644;28;20047;-51
2021/05/26 06:05:58;;;;;;;8.98;3.90;;;;;;;11.14;67.23;101029.50;5095120;28;20048;-53
2021/05/26 06:08:26;;;;;;;11.77;4.53;;;;;;;11.16;67.26;101035.50;5095126;28;20044;-52
2021/05/26 06:10:54;;;;;;;8.98;4.20;;;;;;;11.14;67.49;101034.97;5094874;28;20085;-51
2021/05/26 06:13:21;;;;;;;10.00;3.95;;;;;;;11.14;67.22;101027.59;5094642;28;20040;-55
2021/05/26 06:15:49;;;;;;;12.13;3.67;;;;;;;11.11;67.35;101024.56;5095005;28;20051;-53
2021/05/26 06:18:20;;;;;;;11.13;3.70;;;;;;;11.08;67.30;101024.00;5095162;28;20056;-50
2021/05/26 06:20:48;;;;;;;8.15;3.88;;;;;;;11.04;67.85;101030.25;5094833;28;20052;-52
2021/05/26 06:23:15;;;;;;;10.85;3.17;;;;;;;11.09;69.15;101028.41;5095132;28;20040;-52
2021/05/26 06:25:44;;;;;;;11.02;3.95;;;;;;;11.17;67.52;101031.69;5093207;28;20522;-52
2021/05/26 06:28:11;;;;;;;6.53;2.85;;;;;;;11.19;67.04;101030.34;5094980;28;20085;-51
2021/05/26 06:30:39;;;;;;;9.60;3.70;;;;;;;11.21;67.48;101030.09;5094492;28;20567;-51
2021/05/26 06:33:07;;;;;;;10.60;4.22;;;;;;;11.19;66.78;101026.81;5094975;28;20486;-52
2021/05/26 06:35:34;;;;;;;6.93;4.10;;;;;;;11.20;66.81;101023.78;5094407;28;20133;-52
2021/05/26 06:38:02;;;;;;;9.95;4.30;;;;;;;11.24;67.04;101018.63;5095083;28;20486;-51
2021/05/26 06:40:30;;;;;;;8.32;4.45;;;;;;;11.27;67.21;101012.63;5094009;28;20036;-51
2021/05/26 06:42:57;;;;;;;8.40;4.10;;;;;;;11.34;66.78;101015.94;5094514;28;20051;-51
2021/05/26 06:45:25;;;;;;;12.75;5.38;;;;;;;11.34;67.06;101012.38;5094301;28;20407;-53
2021/05/26 06:47:53;;;;;;;9.73;5.30;;;;;;;11.22;66.56;101020.81;5094407;28;20039;-53
2021/05/26 06:50:21;;;;;;;9.38;5.43;;;;;;;11.19;67.10;101026.81;5094572;28;20044;-54
2021/05/26 06:52:48;;;;;;;11.73;4.90;;;;;;;11.19;67.50;101021.34;5094214;28;20044;-53
2021/05/26 06:55:17;;;;;;;10.57;5.32;;;;;;;11.12;67.03;101026.22;5093990;28;20453;-55
2021/05/26 06:57:46;;;;;;;15.30;5.93;;;;;;;11.20;68.17;101020.25;5094408;28;20079;-53
2021/05/26 07:00:14;;;;;;;10.45;4.93;;;;;;;11.22;67.54;101026.25;5094163;28;20376;-51
2021/05/26 07:02:42;;;;;;;9.30;5.10;;;;;;;11.19;67.80;101024.06;5094429;28;20059;-53
2021/05/26 07:05:10;;;;;;;11.15;4.78;;;;;;;11.20;67.68;101028.44;5094030;28;20055;-51
2021/05/26 07:07:38;;;;;;;11.13;4.82;;;;;;;11.27;67.68;101029.00;5093739;28;20074;-50
2021/05/26 07:10:06;;;;;;;9.77;4.43;;;;;;;11.35;67.06;101024.94;5093090;28;20052;-52
2021/05/26 07:12:34;;;;;;;11.57;5.03;;;;;;;11.42;67.43;101026.31;5093986;28;20044;-52
2021/05/26 07:15:03;;;;;;;8.00;4.10;;;;;;;11.43;67.08;101027.97;5093726;28;20036;-50
2021/05/26 07:17:31;;;;;;;9.52;3.97;;;;;;;11.47;66.89;101023.63;5093881;28;20040;-49
2021/05/26 07:19:59;;;;;;;10.50;4.05;;;;;;;11.49;67.29;101024.16;5093948;28;20036;-53
2021/05/26 07:22:28;;;;;;;13.73;4.20;;;;;;;11.54;67.04;101028.81;5094118;28;20093;-51
2021/05/26 07:24:56;;;;;;;10.38;4.38;;;;;;;11.57;66.32;101027.44;5092969;28;20040;-52
2021/05/26 07:27:24;;;;;;;13.45;4.70;;;;;;;11.61;66.56;101028.56;5093669;28;20090;-51
2021/05/26 07:29:51;;;;;;;10.18;4.53;;;;;;;11.60;66.08;101019.53;5093497;28;20036;-51
2021/05/26 07:32:19;;;;;;;19.35;5.65;;;;;;;11.66;66.74;101020.38;5093625;28;20494;-51
2021/05/26 07:34:47;;;;;;;8.80;4.53;;;;;;;11.66;66.38;101009.44;5093567;28;20052;-51
2021/05/26 07:37:14;;;;;;;10.93;5.00;;;;;;;11.68;66.26;101004.53;5093394;28;20059;-53
2021/05/26 07:39:42;;;;;;;10.13;3.97;;;;;;;11.67;66.78;101009.19;5092985;28;20036;-51
2021/05/26 07:42:13;;;;;;;10.10;4.30;;;;;;;11.68;65.98;101012.72;5093461;28;20043;-51
2021/05/26 07:44:41;;;;;;;10.45;4.90;;;;;;;11.69;66.48;101012.47;5092070;28;20036;-51
2021/05/26 07:47:09;;;;;;;13.35;5.15;;;;;;;11.80;66.72;101005.09;5093381;28;20051;-51
2021/05/26 07:49:36;;;;;;;14.52;5.32;;;;;;;11.88;66.27;101004.59;5093087;28;20036;-51
2021/05/26 07:52:08;;;;;;;15.02;4.82;;;;;;;11.94;66.69;101006.22;5093321;28;20052;-52
2021/05/26 07:54:36;;;;;;;10.60;4.70;;;;;;;11.98;66.42;101002.94;5092596;28;20048;-50
2021/05/26 07:57:05;;;;;;;10.32;4.85;;;;;;;11.98;64.87;100995.59;5093241;28;20440;-50
2021/05/26 07:59:33;;;;;;;15.10;5.43;;;;;;;12.02;66.09;101006.78;5091690;28;20052;-51
2021/05/26 08:02:00;;;;;;;10.57;4.75;;;;;;;12.01;65.16;101011.44;5093363;28;20036;-50
2021/05/26 08:04:28;;;;;;;7.88;4.43;;;;;;;12.02;65.00;101006.78;5093189;28;20127;-50
2021/05/26 08:06:56;;;;;;;11.40;4.88;;;;;;;12.04;65.64;101007.34;5093146;28;20058;-53
2021/05/26 08:09:23;;;;;;;16.42;6.55;;;;;;;12.10;65.52;101008.97;5092690;28;20391;-50
2021/05/26 08:11:51;;;;;;;10.75;5.50;;;;;;;12.12;65.01;101002.16;5092846;28;20038;-52
2021/05/26 08:14:19;;;;;;;24.80;7.35;;;;;;;12.18;64.84;101002.97;5093076;28;20059;-52
2021/05/26 08:16:46;;;;;;;13.20;6.28;;;;;;;12.24;65.63;101004.59;5092523;28;20119;-52
2021/05/26 08:19:14;;;;;;;22.38;8.27;;;;;;;12.36;66.37;100996.94;5086149;28;20079;-55
2021/05/26 08:21:41;;;;;;;26.45;9.23;;;;;;;12.50;66.58;101004.56;5071386;28;20044;-55
2021/05/26 08:24:14;;;;;;;11.55;5.80;;;;;;;12.43;64.86;101012.22;5069947;28;20136;-51
2021/05/26 08:26:42;;;;;;;13.52;6.30;;;;;;;12.34;64.48;101015.53;5084326;28;20058;-52
2021/05/26 08:29:09;;;;;;;12.80;6.57;;;;;;;12.28;65.76;101011.13;5092768;28;20050;-54
2021/05/26 08:31:38;;;;;;;13.18;6.13;;;;;;;12.26;64.37;101007.84;5092710;28;20478;-54
2021/05/26 08:34:05;;;;;;;10.20;5.93;;;;;;;12.19;63.94;101006.50;5092537;28;20439;-52
2021/05/26 08:36:33;;;;;;;11.88;7.07;;;;;;;12.17;64.51;101003.22;5092162;28;20047;-52
2021/05/26 08:39:01;;;;;;;11.23;6.70;;;;;;;12.10;63.99;101003.53;5092156;28;20481;-53
2021/05/26 08:41:29;;;;;;;13.02;6.32;;;;;;;12.08;64.69;101000.25;5092410;28;20123;-52
2021/05/26 08:44:02;;;;;;;10.20;6.00;;;;;;;12.08;64.77;100998.31;5092527;28;20036;-52
2021/05/26 08:46:30;;;;;;;9.85;5.95;;;;;;;12.15;64.83;100995.31;5092522;28;20067;-53
2021/05/26 08:49:01;;;;;;;9.85;5.50;;;;;;;12.20;64.85;100998.03;5091236;28;20051;-51
2021/05/26 08:51:30;;;;;;;10.23;4.82;;;;;;;12.27;64.39;100992.31;5090639;28;20056;-54
2021/05/26 08:53:58;;;;;;;11.88;6.05;;;;;;;12.32;63.68;100995.03;5092156;28;20040;-49
2021/05/26 08:56:25;;;;;;;11.55;6.32;;;;;;;12.35;63.65;100994.47;5092003;28;20048;-49
2021/05/26 08:58:57;;;;;;;13.20;6.93;;;;;;;12.34;63.77;100988.19;5092544;28;20055;-51
2021/05/26 09:01:24;;;;;;;11.23;6.97;;;;;;;12.35;64.47;100989.81;5092121;28;20051;-52
2021/05/26 09:03:53;;;;;;;13.88;7.38;;;;;;;12.36;64.94;100982.44;5092180;28;20052;-50
2021/05/26 09:06:22;;;;;;;12.32;6.85;;;;;;;12.41;64.74;100984.34;5091780;28;20105;-54
2021/05/26 09:08:53;;;;;;;14.32;6.45;;;;;;;12.55;64.88;100980.78;5092169;28;20548;-50
2021/05/26 09:11:33;;;;;;;16.67;6.88;;;;;;;12.63;63.82;100981.28;5092263;28;20074;-53
2021/05/26 09:14:14;;;;;;;12.50;6.65;;;;;;;12.65;63.93;100977.19;5092092;28;20039;-49
2021/05/26 09:16:42;;;;;;;12.57;6.20;;;;;;;12.63;64.88;100973.91;5092101;28;20530;-50
2021/05/26 09:19:10;;;;;;;11.00;5.95;;;;;;;12.70;63.71;100971.72;5076717;28;20505;-53
2021/05/26 09:21:54;;;;;;;12.02;6.55;;;;;;;12.72;63.54;100982.34;5071523;28;20499;-53
2021/05/26 09:24:22;;;;;;;20.23;7.35;;;;;;;12.87;65.22;100973.25;5071701;28;20040;-51
2021/05/26 09:26:59;;;;;;;14.27;6.50;;;;;;;13.02;63.71;100973.22;5084557;28;20499;-55
2021/05/26 09:29:32;;;;;;;11.80;6.07;;;;;;;13.02;62.54;100965.00;5092336;28;20490;-51
2021/05/26 09:32:22;;;;;;;10.90;6.50;;;;;;;13.09;62.38;100960.06;5095858;28;20059;-51
2021/05/26 09:34:59;;;;;;;14.55;6.63;;;;;;;13.14;64.31;100967.41;5072395;28;20044;-50
2021/05/26 09:37:34;;;;;;;18.30;7.50;;;;;;;13.09;62.65;100967.44;5095958;28;20040;-51
2021/05/26 09:40:07;;;;;;;17.15;7.72;;;;;;;13.02;63.33;100959.53;5095763;28;20139;-51
2021/05/26 09:42:42;;;;;;;13.43;7.35;;;;;;;12.95;62.17;100962.56;5095912;28;20044;-52
2021/05/26 09:45:28;;;;;;;15.48;7.88;;;;;;;12.85;62.37;100962.63;5095711;28;20410;-56
2021/05/26 09:48:15;;;;;;;11.95;6.95;;;;;;;12.88;62.23;100955.78;5096261;28;20116;-53
2021/05/26 09:50:43;;;;;;;12.75;7.32;;;;;;;12.87;61.92;100962.31;5096131;28;20040;-55
2021/05/26 09:53:19;;;;;;;15.50;7.40;;;;;;;12.99;61.74;100960.94;5096277;28;20059;-55
2021/05/26 09:55:48;;;;;;;14.30;6.53;;;;;;;13.09;61.74;100957.31;5095829;28;20521;-52
2021/05/26 09:58:17;;;;;;;15.68;7.03;;;;;;;13.07;61.32;100964.97;5094429;28;20060;-51
2021/05/26 10:00:47;;;;;;;15.75;6.88;;;;;;;13.20;63.30;100960.81;5094399;28;20044;-50
2021/05/26 10:03:14;;;;;;;13.43;7.30;;;;;;;13.09;61.96;100960.06;5094986;28;20134;-50
2021/05/26 10:05:43;;;;;;;11.52;6.78;;;;;;;13.02;61.99;100953.25;5096617;28;20437;-53
2021/05/26 10:08:29;;;;;;;;;;;;;;;13.00;61.83;100959.00;5096950;28;20047;-52
2021/05/26 10:11:15;;;;;;;12.32;7.07;;;;;;;13.08;61.35;100963.88;5094096;28;19920;-54
2021/05/26 10:13:50;;;;;;;18.60;6.75;;;;;;;13.16;61.63;100949.63;5095252;28;20039;-55
2021/05/26 10:16:19;;;;;;;12.82;7.13;;;;;;;13.31;62.16;100951.47;5095202;28;20044;-51
2021/05/26 10:18:47;;;;;;;12.95;6.50;;;;;;;13.32;60.76;100953.09;5094990;28;20105;-52
2021/05/26 10:21:16;;;;;;;12.07;6.80;;;;;;;13.31;61.25;100958.88;5095450;28;20043;-51
2021/05/26 10:23:44;;;;;;;13.20;7.93;;;;;;;13.35;60.39;100957.22;5094054;28;20402;-53
2021/05/26 10:26:12;;;;;;;11.95;6.03;;;;;;;13.32;60.31;100963.22;5095148;28;20052;-54
2021/05/26 10:28:39;;;;;;;13.65;7.43;;;;;;;13.28;59.60;100952.06;5093568;28;20048;-51
2021/05/26 10:31:07;;;;;;;13.38;6.72;;;;;;;13.30;59.78;100954.47;5066615;28;20120;-54
2021/05/26 10:33:44;;;;;;;17.55;7.65;;;;;;;13.33;59.32;100960.22;5094306;28;20551;-53
2021/05/26 10:36:12;;;;;;;12.07;5.65;;;;;;;13.29;57.99;100952.88;5094462;28;20056;-53
2021/05/26 10:38:57;;;;;;;10.10;5.35;;;;;;;13.25;57.17;100959.97;5093731;28;20032;-53
2021/05/26 10:41:44;;;;;;;10.70;5.10;;;;;;;13.18;56.98;100958.38;5074640;28;20543;-51
2021/05/26 10:44:11;;;;;;;10.43;4.50;;;;;;;13.18;56.77;100952.06;5093366;28;20101;-52
2021/05/26 10:46:45;;;;;;;9.05;4.90;;;;;;;13.18;57.04;100955.63;5092841;28;20051;-56
2021/05/26 10:49:13;;;;;;;13.98;5.07;;;;;;;13.24;57.81;100955.59;5093280;28;20067;-54
2021/05/26 10:51:53;;;;;;;9.90;4.60;;;;;;;13.28;57.03;100948.50;5094390;28;20541;-51
2021/05/26 10:54:38;;;;;;;12.80;4.90;;;;;;;13.40;57.71;100948.97;5094512;28;20040;-55
2021/05/26 10:57:07;;;;;;;12.30;5.22;;;;;;;13.45;57.71;100957.16;5094398;28;20489;-53
2021/05/26 10:59:39;;;;;;;13.35;5.60;;;;;;;13.45;57.86;100951.66;5094186;28;20038;-54
2021/05/26 11:02:11;;;;;;;11.25;5.10;;;;;;;13.45;57.38;100951.66;5093775;28;20089;-54
2021/05/26 11:04:40;;;;;;;12.95;4.70;;;;;;;13.38;56.24;100960.19;5093065;28;20105;-53
2021/05/26 11:07:29;;;;;;;9.45;3.63;;;;;;;13.20;55.75;100972.59;5094209;28;20047;-53
2021/05/26 11:10:02;;;;;;;5.68;2.20;;;;;;;12.80;54.87;101000.94;5092623;28;20039;-53
2021/05/26 11:12:55;;;;;;;3.97;1.98;;;;;;;12.60;55.46;100990.84;5094118;28;20525;-55
2021/05/26 11:15:39;;;;;;;4.25;1.90;;;;;;;12.53;57.24;100982.13;5093711;28;20040;-54
2021/05/26 11:18:13;;;;;;;6.25;2.20;;;;;;;12.47;57.73;100977.78;5094042;28;20105;-57
2021/05/26 11:20:41;;;;;;;4.85;2.30;;;;;;;12.38;58.32;100988.44;5094208;28;20048;-53
2021/05/26 11:23:13;;;;;;;4.07;2.03;;;;;;;12.35;58.86;100987.09;5093603;28;20052;-53
2021/05/26 11:25:54;;;;;;;5.97;2.38;;;;;;;12.42;58.47;100992.28;5093863;28;20563;-54
2021/05/26 11:28:29;;;;;;;6.50;2.22;;;;;;;12.47;59.41;100991.44;5093712;28;20048;-51
2021/05/26 11:31:08;;;;;;;7.50;2.60;;;;;;;12.53;59.24;100991.16;5093156;28;20039;-52
2021/05/26 11:33:36;;;;;;;6.88;2.50;;;;;;;12.60;58.60;100985.38;5093438;28;20437;-50
2021/05/26 11:36:09;;;;;;;5.15;2.88;;;;;;;12.70;58.31;100982.66;5093510;28;20064;-53
2021/05/26 11:38:37;;;;;;;3.92;2.20;;;;;;;12.75;58.37;100990.00;5093489;28;20052;-55